sensor_id;sensor_type;location;lat;lon;timestamp;P1;P2;P0
74880;PMS5003;63427;49.654;6.596;2023-03-23T00:01:23;2;2;
74880;PMS5003;63427;49.654;6.596;2023-03-23T00:03:49;3;2;
74880;PMS5003;63427;49.654;6.596;2023-03-23T00:06:14;3;3;
74880;PMS5003;63427;49.654;6.596;2023-03-23T00:08:39;3;3;
74880;PMS5003;63427;49.654;6.596;2023-03-23T00:11:05;3;3;
74880;PMS5003;63427;49.654;6.596;2023-03-23T00:13:30;3;3;
74880;PMS5003;63427;49.654;6.596;2023-03-23T00:15:56;3;3;
74880;PMS5003;63427;49.654;6.596;2023-03-23T00:18:21;2;2;
74880;PMS5003;63427;49.654;6.596;2023-03-23T00:20:47;2;2;
74880;PMS5003;63427;49.654;6.596;2023-03-23T00:23:12;2;2;
74880;PMS5003;63427;49.654;6.596;2023-03-23T00:25:37;3;3;
74880;PMS5003;63427;49.654;6.596;2023-03-23T00:28:03;1;1;
74880;PMS5003;63427;49.654;6.596;2023-03-23T00:30:28;2;2;
74880;PMS5003;63427;49.654;6.596;2023-03-23T00:32:53;2;2;
74880;PMS5003;63427;49.654;6.596;2023-03-23T00:35:19;2;2;
74880;PMS5003;63427;49.654;6.596;2023-03-23T00:37:44;3;3;
74880;PMS5003;63427;49.654;6.596;2023-03-23T00:40:10;2;2;
74880;PMS5003;63427;49.654;6.596;2023-03-23T00:42:35;1;1;
74880;PMS5003;63427;49.654;6.596;2023-03-23T00:45:01;2;2;
74880;PMS5003;63427;49.654;6.596;2023-03-23T00:47:26;2;2;
74880;PMS5003;63427;49.654;6.596;2023-03-23T00:49:51;3;3;
74880;PMS5003;63427;49.654;6.596;2023-03-23T00:52:17;2;2;
74880;PMS5003;63427;49.654;6.596;2023-03-23T00:54:43;3;3;
74880;PMS5003;63427;49.654;6.596;2023-03-23T00:57:08;3;3;
74880;PMS5003;63427;49.654;6.596;2023-03-23T00:59:33;3;2;
74880;PMS5003;63427;49.654;6.596;2023-03-23T01:01:59;2;2;
74880;PMS5003;63427;49.654;6.596;2023-03-23T01:04:24;2;2;
74880;PMS5003;63427;49.654;6.596;2023-03-23T01:06:50;2;2;
74880;PMS5003;63427;49.654;6.596;2023-03-23T01:09:15;2;2;
74880;PMS5003;63427;49.654;6.596;2023-03-23T01:11:40;3;3;
74880;PMS5003;63427;49.654;6.596;2023-03-23T01:14:06;3;3;
74880;PMS5003;63427;49.654;6.596;2023-03-23T01:16:31;2;2;
74880;PMS5003;63427;49.654;6.596;2023-03-23T01:18:57;3;3;
74880;PMS5003;63427;49.654;6.596;2023-03-23T01:21:22;3;3;
74880;PMS5003;63427;49.654;6.596;2023-03-23T01:23:48;2;2;
74880;PMS5003;63427;49.654;6.596;2023-03-23T01:26:14;3;3;
74880;PMS5003;63427;49.654;6.596;2023-03-23T01:28:38;3;3;
74880;PMS5003;63427;49.654;6.596;2023-03-23T01:31:05;3;3;
74880;PMS5003;63427;49.654;6.596;2023-03-23T01:33:29;3;2;
74880;PMS5003;63427;49.654;6.596;2023-03-23T01:35:54;3;3;
74880;PMS5003;63427;49.654;6.596;2023-03-23T01:38:20;1;1;
74880;PMS5003;63427;49.654;6.596;2023-03-23T01:40:45;5;4;
74880;PMS5003;63427;49.654;6.596;2023-03-23T01:43:11;3;3;
74880;PMS5003;63427;49.654;6.596;2023-03-23T01:45:37;1;1;
74880;PMS5003;63427;49.654;6.596;2023-03-23T01:48:04;3;3;
74880;PMS5003;63427;49.654;6.596;2023-03-23T01:50:28;6;6;
74880;PMS5003;63427;49.654;6.596;2023-03-23T01:52:53;3;3;
74880;PMS5003;63427;49.654;6.596;2023-03-23T01:55:18;3;3;
74880;PMS5003;63427;49.654;6.596;2023-03-23T01:57:44;3;3;
74880;PMS5003;63427;49.654;6.596;2023-03-23T02:00:09;4;3;
74880;PMS5003;63427;49.654;6.596;2023-03-23T02:02:34;3;3;
74880;PMS5003;63427;49.654;6.596;2023-03-23T02:05:01;2;2;
74880;PMS5003;63427;49.654;6.596;2023-03-23T02:07:25;4;4;
74880;PMS5003;63427;49.654;6.596;2023-03-23T02:09:51;4;4;
74880;PMS5003;63427;49.654;6.596;2023-03-23T02:12:16;2;2;
74880;PMS5003;63427;49.654;6.596;2023-03-23T02:14:42;4;4;
74880;PMS5003;63427;49.654;6.596;2023-03-23T02:17:08;4;4;
74880;PMS5003;63427;49.654;6.596;2023-03-23T02:19:39;4;4;
74880;PMS5003;63427;49.654;6.596;2023-03-23T02:22:03;4;4;
74880;PMS5003;63427;49.654;6.596;2023-03-23T02:26:50;4;4;
74880;PMS5003;63427;49.654;6.596;2023-03-23T02:29:20;3;3;
74880;PMS5003;63427;49.654;6.596;2023-03-23T02:31:43;5;5;
74880;PMS5003;63427;49.654;6.596;2023-03-23T02:34:06;3;3;
74880;PMS5003;63427;49.654;6.596;2023-03-23T02:36:32;2;2;
74880;PMS5003;63427;49.654;6.596;2023-03-23T02:38:57;4;4;
74880;PMS5003;63427;49.654;6.596;2023-03-23T02:41:22;3;3;
74880;PMS5003;63427;49.654;6.596;2023-03-23T02:43:47;3;3;
74880;PMS5003;63427;49.654;6.596;2023-03-23T02:46:13;4;4;
74880;PMS5003;63427;49.654;6.596;2023-03-23T02:48:38;4;4;
74880;PMS5003;63427;49.654;6.596;2023-03-23T02:51:04;5;5;
74880;PMS5003;63427;49.654;6.596;2023-03-23T02:53:29;5;5;
74880;PMS5003;63427;49.654;6.596;2023-03-23T02:55:55;2;2;
74880;PMS5003;63427;49.654;6.596;2023-03-23T02:58:20;5;5;
74880;PMS5003;63427;49.654;6.596;2023-03-23T03:00:46;3;3;
74880;PMS5003;63427;49.654;6.596;2023-03-23T03:03:12;4;4;
74880;PMS5003;63427;49.654;6.596;2023-03-23T03:05:38;4;4;
74880;PMS5003;63427;49.654;6.596;2023-03-23T03:08:06;5;5;
74880;PMS5003;63427;49.654;6.596;2023-03-23T03:10:29;5;5;
74880;PMS5003;63427;49.654;6.596;2023-03-23T03:12:55;5;5;
74880;PMS5003;63427;49.654;6.596;2023-03-23T03:15:22;4;4;
74880;PMS5003;63427;49.654;6.596;2023-03-23T03:17:45;5;5;
74880;PMS5003;63427;49.654;6.596;2023-03-23T03:20:10;4;4;
74880;PMS5003;63427;49.654;6.596;2023-03-23T03:22:35;5;5;
74880;PMS5003;63427;49.654;6.596;2023-03-23T03:25:00;7;7;
74880;PMS5003;63427;49.654;6.596;2023-03-23T03:27:26;5;4;
74880;PMS5003;63427;49.654;6.596;2023-03-23T03:29:54;3;3;
74880;PMS5003;63427;49.654;6.596;2023-03-23T03:32:18;5;5;
74880;PMS5003;63427;49.654;6.596;2023-03-23T03:34:42;4;4;
74880;PMS5003;63427;49.654;6.596;2023-03-23T03:37:08;6;6;
74880;PMS5003;63427;49.654;6.596;2023-03-23T03:39:34;4;3;
74880;PMS5003;63427;49.654;6.596;2023-03-23T03:41:59;4;4;
74880;PMS5003;63427;49.654;6.596;2023-03-23T03:44:24;6;6;
74880;PMS5003;63427;49.654;6.596;2023-03-23T03:46:50;5;5;
74880;PMS5003;63427;49.654;6.596;2023-03-23T03:49:15;6;6;
74880;PMS5003;63427;49.654;6.596;2023-03-23T03:51:41;5;5;
74880;PMS5003;63427;49.654;6.596;2023-03-23T03:54:06;5;5;
74880;PMS5003;63427;49.654;6.596;2023-03-23T03:56:31;5;5;
74880;PMS5003;63427;49.654;6.596;2023-03-23T03:58:57;6;5;
74880;PMS5003;63427;49.654;6.596;2023-03-23T04:01:22;4;4;
74880;PMS5003;63427;49.654;6.596;2023-03-23T04:03:48;4;4;
74880;PMS5003;63427;49.654;6.596;2023-03-23T04:06:13;5;4;
74880;PMS5003;63427;49.654;6.596;2023-03-23T04:08:39;5;5;
74880;PMS5003;63427;49.654;6.596;2023-03-23T04:11:04;6;6;
74880;PMS5003;63427;49.654;6.596;2023-03-23T04:13:30;6;6;
74880;PMS5003;63427;49.654;6.596;2023-03-23T04:15:56;5;5;
74880;PMS5003;63427;49.654;6.596;2023-03-23T04:18:21;6;6;
74880;PMS5003;63427;49.654;6.596;2023-03-23T04:20:47;5;4;
74880;PMS5003;63427;49.654;6.596;2023-03-23T04:23:11;5;5;
74880;PMS5003;63427;49.654;6.596;2023-03-23T04:25:37;4;4;
74880;PMS5003;63427;49.654;6.596;2023-03-23T04:28:03;7;6;
74880;PMS5003;63427;49.654;6.596;2023-03-23T04:30:28;3;3;
74880;PMS5003;63427;49.654;6.596;2023-03-23T04:32:53;5;5;
74880;PMS5003;63427;49.654;6.596;2023-03-23T04:35:19;6;6;
74880;PMS5003;63427;49.654;6.596;2023-03-23T04:37:45;7;7;
74880;PMS5003;63427;49.654;6.596;2023-03-23T04:40:10;5;5;
74880;PMS5003;63427;49.654;6.596;2023-03-23T04:42:35;6;6;
74880;PMS5003;63427;49.654;6.596;2023-03-23T04:45:01;7;7;
74880;PMS5003;63427;49.654;6.596;2023-03-23T04:47:26;5;5;
74880;PMS5003;63427;49.654;6.596;2023-03-23T04:49:52;6;6;
74880;PMS5003;63427;49.654;6.596;2023-03-23T04:52:17;4;4;
74880;PMS5003;63427;49.654;6.596;2023-03-23T04:54:43;5;5;
74880;PMS5003;63427;49.654;6.596;2023-03-23T04:57:08;5;5;
74880;PMS5003;63427;49.654;6.596;2023-03-23T04:59:34;4;4;
74880;PMS5003;63427;49.654;6.596;2023-03-23T05:01:59;4;4;
74880;PMS5003;63427;49.654;6.596;2023-03-23T05:04:25;4;4;
74880;PMS5003;63427;49.654;6.596;2023-03-23T05:06:50;3;3;
74880;PMS5003;63427;49.654;6.596;2023-03-23T05:09:16;7;7;
74880;PMS5003;63427;49.654;6.596;2023-03-23T05:11:41;4;4;
74880;PMS5003;63427;49.654;6.596;2023-03-23T05:14:07;5;5;
74880;PMS5003;63427;49.654;6.596;2023-03-23T05:16:32;6;6;
74880;PMS5003;63427;49.654;6.596;2023-03-23T05:18:58;5;5;
74880;PMS5003;63427;49.654;6.596;2023-03-23T05:21:23;5;4;
74880;PMS5003;63427;49.654;6.596;2023-03-23T05:23:49;6;6;
74880;PMS5003;63427;49.654;6.596;2023-03-23T05:26:14;8;7;
74880;PMS5003;63427;49.654;6.596;2023-03-23T05:28:40;7;7;
74880;PMS5003;63427;49.654;6.596;2023-03-23T05:31:05;7;7;
74880;PMS5003;63427;49.654;6.596;2023-03-23T05:33:31;7;6;
74880;PMS5003;63427;49.654;6.596;2023-03-23T05:35:56;6;6;
74880;PMS5003;63427;49.654;6.596;2023-03-23T05:38:22;6;6;
74880;PMS5003;63427;49.654;6.596;2023-03-23T05:40:47;6;6;
74880;PMS5003;63427;49.654;6.596;2023-03-23T05:43:13;6;6;
74880;PMS5003;63427;49.654;6.596;2023-03-23T05:45:38;6;5;
74880;PMS5003;63427;49.654;6.596;2023-03-23T05:48:04;8;8;
74880;PMS5003;63427;49.654;6.596;2023-03-23T05:50:29;8;7;
74880;PMS5003;63427;49.654;6.596;2023-03-23T05:52:55;5;5;
74880;PMS5003;63427;49.654;6.596;2023-03-23T05:55:20;6;6;
74880;PMS5003;63427;49.654;6.596;2023-03-23T05:57:45;8;7;
74880;PMS5003;63427;49.654;6.596;2023-03-23T06:00:11;7;7;
74880;PMS5003;63427;49.654;6.596;2023-03-23T06:02:36;5;5;
74880;PMS5003;63427;49.654;6.596;2023-03-23T06:05:02;7;7;
74880;PMS5003;63427;49.654;6.596;2023-03-23T06:07:28;7;7;
74880;PMS5003;63427;49.654;6.596;2023-03-23T06:09:54;6;6;
74880;PMS5003;63427;49.654;6.596;2023-03-23T06:12:19;7;7;
74880;PMS5003;63427;49.654;6.596;2023-03-23T06:14:44;5;5;
74880;PMS5003;63427;49.654;6.596;2023-03-23T06:17:09;6;6;
74880;PMS5003;63427;49.654;6.596;2023-03-23T06:19:35;6;6;
74880;PMS5003;63427;49.654;6.596;2023-03-23T06:22:00;7;7;
74880;PMS5003;63427;49.654;6.596;2023-03-23T06:24:26;5;5;
74880;PMS5003;63427;49.654;6.596;2023-03-23T06:26:51;6;6;
74880;PMS5003;63427;49.654;6.596;2023-03-23T06:29:17;5;5;
74880;PMS5003;63427;49.654;6.596;2023-03-23T06:31:43;11;9;
74880;PMS5003;63427;49.654;6.596;2023-03-23T06:34:07;6;6;
74880;PMS5003;63427;49.654;6.596;2023-03-23T06:36:33;5;5;
74880;PMS5003;63427;49.654;6.596;2023-03-23T06:38:58;3;3;
74880;PMS5003;63427;49.654;6.596;2023-03-23T06:41:24;4;4;
74880;PMS5003;63427;49.654;6.596;2023-03-23T06:43:49;4;4;
74880;PMS5003;63427;49.654;6.596;2023-03-23T06:46:15;4;4;
74880;PMS5003;63427;49.654;6.596;2023-03-23T06:48:40;7;6;
74880;PMS5003;63427;49.654;6.596;2023-03-23T06:51:06;5;5;
74880;PMS5003;63427;49.654;6.596;2023-03-23T06:53:31;4;4;
74880;PMS5003;63427;49.654;6.596;2023-03-23T06:55:57;4;4;
74880;PMS5003;63427;49.654;6.596;2023-03-23T06:58:22;5;5;
74880;PMS5003;63427;49.654;6.596;2023-03-23T07:00:48;4;4;
74880;PMS5003;63427;49.654;6.596;2023-03-23T07:03:13;5;5;
74880;PMS5003;63427;49.654;6.596;2023-03-23T07:05:38;4;4;
74880;PMS5003;63427;49.654;6.596;2023-03-23T07:08:04;5;5;
74880;PMS5003;63427;49.654;6.596;2023-03-23T07:10:29;5;5;
74880;PMS5003;63427;49.654;6.596;2023-03-23T07:12:55;3;3;
74880;PMS5003;63427;49.654;6.596;2023-03-23T07:15:20;4;4;
74880;PMS5003;63427;49.654;6.596;2023-03-23T07:17:46;2;2;
74880;PMS5003;63427;49.654;6.596;2023-03-23T07:20:11;5;5;
74880;PMS5003;63427;49.654;6.596;2023-03-23T07:22:36;4;4;
74880;PMS5003;63427;49.654;6.596;2023-03-23T07:25:02;3;3;
74880;PMS5003;63427;49.654;6.596;2023-03-23T07:27:27;5;5;
74880;PMS5003;63427;49.654;6.596;2023-03-23T07:29:53;4;4;
74880;PMS5003;63427;49.654;6.596;2023-03-23T07:32:18;3;3;
74880;PMS5003;63427;49.654;6.596;2023-03-23T07:34:44;4;4;
74880;PMS5003;63427;49.654;6.596;2023-03-23T07:37:09;4;4;
74880;PMS5003;63427;49.654;6.596;2023-03-23T07:39:35;5;5;
74880;PMS5003;63427;49.654;6.596;2023-03-23T07:42:00;3;3;
74880;PMS5003;63427;49.654;6.596;2023-03-23T07:44:26;5;4;
74880;PMS5003;63427;49.654;6.596;2023-03-23T07:46:51;4;4;
74880;PMS5003;63427;49.654;6.596;2023-03-23T07:49:16;4;4;
74880;PMS5003;63427;49.654;6.596;2023-03-23T07:51:42;4;3;
74880;PMS5003;63427;49.654;6.596;2023-03-23T07:54:07;3;3;
74880;PMS5003;63427;49.654;6.596;2023-03-23T07:56:33;2;2;
74880;PMS5003;63427;49.654;6.596;2023-03-23T07:58:58;2;2;
74880;PMS5003;63427;49.654;6.596;2023-03-23T08:01:24;4;4;
74880;PMS5003;63427;49.654;6.596;2023-03-23T08:03:49;4;4;
74880;PMS5003;63427;49.654;6.596;2023-03-23T08:06:14;4;3;
74880;PMS5003;63427;49.654;6.596;2023-03-23T08:08:40;4;4;
74880;PMS5003;63427;49.654;6.596;2023-03-23T08:11:05;2;2;
74880;PMS5003;63427;49.654;6.596;2023-03-23T08:13:31;2;2;
74880;PMS5003;63427;49.654;6.596;2023-03-23T08:15:56;3;3;
74880;PMS5003;63427;49.654;6.596;2023-03-23T08:18:21;4;4;
74880;PMS5003;63427;49.654;6.596;2023-03-23T08:20:47;3;3;
74880;PMS5003;63427;49.654;6.596;2023-03-23T08:23:12;4;4;
74880;PMS5003;63427;49.654;6.596;2023-03-23T08:25:38;3;3;
74880;PMS5003;63427;49.654;6.596;2023-03-23T08:28:03;3;3;
74880;PMS5003;63427;49.654;6.596;2023-03-23T08:30:29;4;4;
74880;PMS5003;63427;49.654;6.596;2023-03-23T08:32:54;2;2;
74880;PMS5003;63427;49.654;6.596;2023-03-23T08:35:19;2;2;
74880;PMS5003;63427;49.654;6.596;2023-03-23T08:37:45;5;4;
74880;PMS5003;63427;49.654;6.596;2023-03-23T08:40:11;3;3;
74880;PMS5003;63427;49.654;6.596;2023-03-23T08:42:36;3;3;
74880;PMS5003;63427;49.654;6.596;2023-03-23T08:45:02;2;2;
74880;PMS5003;63427;49.654;6.596;2023-03-23T08:47:27;1;1;
74880;PMS5003;63427;49.654;6.596;2023-03-23T08:49:52;2;2;
74880;PMS5003;63427;49.654;6.596;2023-03-23T08:52:18;3;3;
74880;PMS5003;63427;49.654;6.596;2023-03-23T08:54:43;2;1;
74880;PMS5003;63427;49.654;6.596;2023-03-23T08:57:08;1;1;
74880;PMS5003;63427;49.654;6.596;2023-03-23T08:59:34;3;3;
74880;PMS5003;63427;49.654;6.596;2023-03-23T09:01:59;2;2;
74880;PMS5003;63427;49.654;6.596;2023-03-23T09:04:24;2;2;
74880;PMS5003;63427;49.654;6.596;2023-03-23T09:06:50;2;2;
74880;PMS5003;63427;49.654;6.596;2023-03-23T09:09:15;2;2;
74880;PMS5003;63427;49.654;6.596;2023-03-23T09:11:41;3;3;
74880;PMS5003;63427;49.654;6.596;2023-03-23T09:14:07;2;2;
74880;PMS5003;63427;49.654;6.596;2023-03-23T09:16:32;3;3;
74880;PMS5003;63427;49.654;6.596;2023-03-23T09:18:57;3;3;
74880;PMS5003;63427;49.654;6.596;2023-03-23T09:21:23;2;2;
74880;PMS5003;63427;49.654;6.596;2023-03-23T09:23:48;3;3;
74880;PMS5003;63427;49.654;6.596;2023-03-23T09:26:13;3;3;
74880;PMS5003;63427;49.654;6.596;2023-03-23T09:28:39;2;2;
74880;PMS5003;63427;49.654;6.596;2023-03-23T09:31:04;2;2;
74880;PMS5003;63427;49.654;6.596;2023-03-23T09:33:30;4;4;
74880;PMS5003;63427;49.654;6.596;2023-03-23T09:35:55;3;3;
74880;PMS5003;63427;49.654;6.596;2023-03-23T09:38:20;1;1;
74880;PMS5003;63427;49.654;6.596;2023-03-23T09:40:46;3;3;
74880;PMS5003;63427;49.654;6.596;2023-03-23T09:43:16;1;1;
74880;PMS5003;63427;49.654;6.596;2023-03-23T09:45:39;3;3;
74880;PMS5003;63427;49.654;6.596;2023-03-23T09:48:07;1;1;
74880;PMS5003;63427;49.654;6.596;2023-03-23T09:50:28;1;1;
74880;PMS5003;63427;49.654;6.596;2023-03-23T09:52:54;2;2;
74880;PMS5003;63427;49.654;6.596;2023-03-23T09:55:18;0;0;
74880;PMS5003;63427;49.654;6.596;2023-03-23T09:57:45;2;2;
74880;PMS5003;63427;49.654;6.596;2023-03-23T10:00:10;4;3;
74880;PMS5003;63427;49.654;6.596;2023-03-23T10:02:36;2;2;
74880;PMS5003;63427;49.654;6.596;2023-03-23T10:05:03;0;0;
74880;PMS5003;63427;49.654;6.596;2023-03-23T10:07:26;2;2;
74880;PMS5003;63427;49.654;6.596;2023-03-23T10:09:52;1;1;
74880;PMS5003;63427;49.654;6.596;2023-03-23T10:12:19;2;2;
74880;PMS5003;63427;49.654;6.596;2023-03-23T10:14:46;3;3;
74880;PMS5003;63427;49.654;6.596;2023-03-23T10:17:09;2;2;
74880;PMS5003;63427;49.654;6.596;2023-03-23T10:19:33;1;1;
74880;PMS5003;63427;49.654;6.596;2023-03-23T10:22:00;3;3;
74880;PMS5003;63427;49.654;6.596;2023-03-23T10:24:23;1;1;
74880;PMS5003;63427;49.654;6.596;2023-03-23T10:26:50;1;1;
74880;PMS5003;63427;49.654;6.596;2023-03-23T10:29:14;2;2;
74880;PMS5003;63427;49.654;6.596;2023-03-23T10:31:39;1;1;
74880;PMS5003;63427;49.654;6.596;2023-03-23T10:34:07;1;1;
74880;PMS5003;63427;49.654;6.596;2023-03-23T10:36:30;1;1;
74880;PMS5003;63427;49.654;6.596;2023-03-23T10:38:57;0;0;
74880;PMS5003;63427;49.654;6.596;2023-03-23T10:41:20;2;2;
74880;PMS5003;63427;49.654;6.596;2023-03-23T10:43:46;0;0;
74880;PMS5003;63427;49.654;6.596;2023-03-23T10:46:14;2;2;
74880;PMS5003;63427;49.654;6.596;2023-03-23T10:48:37;1;1;
74880;PMS5003;63427;49.654;6.596;2023-03-23T10:51:02;2;2;
74880;PMS5003;63427;49.654;6.596;2023-03-23T10:53:28;2;2;
74880;PMS5003;63427;49.654;6.596;2023-03-23T10:55:52;2;2;
74880;PMS5003;63427;49.654;6.596;2023-03-23T10:58:23;2;2;
74880;PMS5003;63427;49.654;6.596;2023-03-23T11:00:44;2;2;
74880;PMS5003;63427;49.654;6.596;2023-03-23T11:05:35;2;2;
74880;PMS5003;63427;49.654;6.596;2023-03-23T11:07:59;2;2;
74880;PMS5003;63427;49.654;6.596;2023-03-23T11:10:25;1;1;
74880;PMS5003;63427;49.654;6.596;2023-03-23T11:12:50;3;2;
74880;PMS5003;63427;49.654;6.596;2023-03-23T11:15:20;2;2;
74880;PMS5003;63427;49.654;6.596;2023-03-23T11:17:40;3;2;
74880;PMS5003;63427;49.654;6.596;2023-03-23T11:20:11;1;1;
74880;PMS5003;63427;49.654;6.596;2023-03-23T11:22:31;2;2;
74880;PMS5003;63427;49.654;6.596;2023-03-23T11:25:00;2;2;
74880;PMS5003;63427;49.654;6.596;2023-03-23T11:27:21;2;2;
74880;PMS5003;63427;49.654;6.596;2023-03-23T11:29:48;2;2;
74880;PMS5003;63427;49.654;6.596;2023-03-23T11:32:14;3;3;
74880;PMS5003;63427;49.654;6.596;2023-03-23T11:34:40;2;2;
74880;PMS5003;63427;49.654;6.596;2023-03-23T11:37:03;4;3;
74880;PMS5003;63427;49.654;6.596;2023-03-23T11:39:28;3;3;
74880;PMS5003;63427;49.654;6.596;2023-03-23T11:41:53;1;1;
74880;PMS5003;63427;49.654;6.596;2023-03-23T11:44:19;2;2;
74880;PMS5003;63427;49.654;6.596;2023-03-23T11:46:48;2;2;
74880;PMS5003;63427;49.654;6.596;2023-03-23T11:49:10;3;3;
74880;PMS5003;63427;49.654;6.596;2023-03-23T11:51:36;1;1;
74880;PMS5003;63427;49.654;6.596;2023-03-23T11:54:02;3;3;
74880;PMS5003;63427;49.654;6.596;2023-03-23T11:56:25;2;2;
74880;PMS5003;63427;49.654;6.596;2023-03-23T11:58:50;3;3;
74880;PMS5003;63427;49.654;6.596;2023-03-23T12:01:20;5;5;
74880;PMS5003;63427;49.654;6.596;2023-03-23T12:03:47;2;2;
74880;PMS5003;63427;49.654;6.596;2023-03-23T12:06:07;2;2;
74880;PMS5003;63427;49.654;6.596;2023-03-23T12:08:37;3;3;
74880;PMS5003;63427;49.654;6.596;2023-03-23T12:10:58;2;2;
74880;PMS5003;63427;49.654;6.596;2023-03-23T12:13:29;1;1;
74880;PMS5003;63427;49.654;6.596;2023-03-23T12:15:49;3;3;
74880;PMS5003;63427;49.654;6.596;2023-03-23T12:18:15;2;2;
74880;PMS5003;63427;49.654;6.596;2023-03-23T12:20:41;2;1;
74880;PMS5003;63427;49.654;6.596;2023-03-23T12:23:08;2;2;
74880;PMS5003;63427;49.654;6.596;2023-03-23T12:27:55;2;2;
74880;PMS5003;63427;49.654;6.596;2023-03-23T12:30:22;2;2;
74880;PMS5003;63427;49.654;6.596;2023-03-23T12:32:52;2;2;
74880;PMS5003;63427;49.654;6.596;2023-03-23T12:35:14;3;3;
74880;PMS5003;63427;49.654;6.596;2023-03-23T12:37:38;2;2;
74880;PMS5003;63427;49.654;6.596;2023-03-23T12:40:05;2;2;
74880;PMS5003;63427;49.654;6.596;2023-03-23T12:42:28;3;3;
74880;PMS5003;63427;49.654;6.596;2023-03-23T12:44:52;3;3;
74880;PMS5003;63427;49.654;6.596;2023-03-23T12:47:21;3;2;
74880;PMS5003;63427;49.654;6.596;2023-03-23T12:49:43;1;1;
74880;PMS5003;63427;49.654;6.596;2023-03-23T12:52:10;2;2;
74880;PMS5003;63427;49.654;6.596;2023-03-23T12:54:33;2;2;
74880;PMS5003;63427;49.654;6.596;2023-03-23T12:56:59;3;3;
74880;PMS5003;63427;49.654;6.596;2023-03-23T12:59:25;1;1;
74880;PMS5003;63427;49.654;6.596;2023-03-23T13:01:50;2;2;
74880;PMS5003;63427;49.654;6.596;2023-03-23T13:04:15;3;3;
74880;PMS5003;63427;49.654;6.596;2023-03-23T13:06:39;2;2;
74880;PMS5003;63427;49.654;6.596;2023-03-23T13:09:05;3;3;
74880;PMS5003;63427;49.654;6.596;2023-03-23T13:11:32;4;4;
74880;PMS5003;63427;49.654;6.596;2023-03-23T13:13:55;2;2;
74880;PMS5003;63427;49.654;6.596;2023-03-23T13:16:25;3;2;
74880;PMS5003;63427;49.654;6.596;2023-03-23T13:18:48;2;2;
74880;PMS5003;63427;49.654;6.596;2023-03-23T13:21:13;2;2;
74880;PMS5003;63427;49.654;6.596;2023-03-23T13:23:37;3;3;
74880;PMS5003;63427;49.654;6.596;2023-03-23T13:26:02;6;5;
74880;PMS5003;63427;49.654;6.596;2023-03-23T13:28:27;1;1;
74880;PMS5003;63427;49.654;6.596;2023-03-23T13:30:54;3;3;
74880;PMS5003;63427;49.654;6.596;2023-03-23T13:33:19;4;4;
74880;PMS5003;63427;49.654;6.596;2023-03-23T13:35:42;0;0;
74880;PMS5003;63427;49.654;6.596;2023-03-23T13:38:12;4;3;
74880;PMS5003;63427;49.654;6.596;2023-03-23T13:40:33;3;2;
74880;PMS5003;63427;49.654;6.596;2023-03-23T13:42:58;3;3;
74880;PMS5003;63427;49.654;6.596;2023-03-23T13:45:24;2;1;
74880;PMS5003;63427;49.654;6.596;2023-03-23T13:47:49;2;2;
74880;PMS5003;63427;49.654;6.596;2023-03-23T13:50:28;0;0;
74880;PMS5003;63427;49.654;6.596;2023-03-23T13:52:45;2;2;
74880;PMS5003;63427;49.654;6.596;2023-03-23T13:57:34;1;1;
74880;PMS5003;63427;49.654;6.596;2023-03-23T13:59:56;3;3;
74880;PMS5003;63427;49.654;6.596;2023-03-23T14:04:45;2;2;
74880;PMS5003;63427;49.654;6.596;2023-03-23T14:07:11;3;3;
74880;PMS5003;63427;49.654;6.596;2023-03-23T14:09:37;3;3;
74880;PMS5003;63427;49.654;6.596;2023-03-23T14:12:01;2;2;
74880;PMS5003;63427;49.654;6.596;2023-03-23T14:14:27;2;2;
74880;PMS5003;63427;49.654;6.596;2023-03-23T14:16:51;2;2;
74880;PMS5003;63427;49.654;6.596;2023-03-23T14:19:17;3;2;
74880;PMS5003;63427;49.654;6.596;2023-03-23T14:21:42;3;3;
74880;PMS5003;63427;49.654;6.596;2023-03-23T14:24:11;2;1;
74880;PMS5003;63427;49.654;6.596;2023-03-23T14:26:33;2;2;
74880;PMS5003;63427;49.654;6.596;2023-03-23T14:28:57;2;2;
74880;PMS5003;63427;49.654;6.596;2023-03-23T14:31:23;3;3;
74880;PMS5003;63427;49.654;6.596;2023-03-23T14:33:49;3;2;
74880;PMS5003;63427;49.654;6.596;2023-03-23T14:36:13;3;3;
74880;PMS5003;63427;49.654;6.596;2023-03-23T14:38:38;2;2;
74880;PMS5003;63427;49.654;6.596;2023-03-23T14:41:04;2;2;
74880;PMS5003;63427;49.654;6.596;2023-03-23T14:43:29;2;2;
74880;PMS5003;63427;49.654;6.596;2023-03-23T14:45:55;2;2;
74880;PMS5003;63427;49.654;6.596;2023-03-23T14:48:19;2;2;
74880;PMS5003;63427;49.654;6.596;2023-03-23T14:50:48;2;2;
74880;PMS5003;63427;49.654;6.596;2023-03-23T14:53:11;2;2;
74880;PMS5003;63427;49.654;6.596;2023-03-23T14:55:35;3;3;
74880;PMS5003;63427;49.654;6.596;2023-03-23T14:58:06;3;3;
74880;PMS5003;63427;49.654;6.596;2023-03-23T15:00:27;2;2;
74880;PMS5003;63427;49.654;6.596;2023-03-23T15:02:51;2;2;
74880;PMS5003;63427;49.654;6.596;2023-03-23T15:05:16;4;4;
74880;PMS5003;63427;49.654;6.596;2023-03-23T15:07:42;1;1;
74880;PMS5003;63427;49.654;6.596;2023-03-23T15:10:07;2;2;
74880;PMS5003;63427;49.654;6.596;2023-03-23T15:12:32;3;3;
74880;PMS5003;63427;49.654;6.596;2023-03-23T15:14:57;2;2;
74880;PMS5003;63427;49.654;6.596;2023-03-23T15:17:23;3;3;
74880;PMS5003;63427;49.654;6.596;2023-03-23T15:19:47;2;2;
74880;PMS5003;63427;49.654;6.596;2023-03-23T15:22:15;2;1;
74880;PMS5003;63427;49.654;6.596;2023-03-23T15:24:38;3;2;
74880;PMS5003;63427;49.654;6.596;2023-03-23T15:27:04;3;3;
74880;PMS5003;63427;49.654;6.596;2023-03-23T15:29:28;3;3;
74880;PMS5003;63427;49.654;6.596;2023-03-23T15:31:54;4;4;
74880;PMS5003;63427;49.654;6.596;2023-03-23T15:34:24;1;1;
74880;PMS5003;63427;49.654;6.596;2023-03-23T15:36:44;3;3;
74880;PMS5003;63427;49.654;6.596;2023-03-23T15:39:09;2;2;
74880;PMS5003;63427;49.654;6.596;2023-03-23T15:41:34;2;2;
74880;PMS5003;63427;49.654;6.596;2023-03-23T15:46:25;2;2;
74880;PMS5003;63427;49.654;6.596;2023-03-23T15:48:51;4;3;
74880;PMS5003;63427;49.654;6.596;2023-03-23T15:51:15;2;2;
74880;PMS5003;63427;49.654;6.596;2023-03-23T15:53:40;3;3;
74880;PMS5003;63427;49.654;6.596;2023-03-23T15:56:06;3;2;
74880;PMS5003;63427;49.654;6.596;2023-03-23T15:58:31;3;3;
74880;PMS5003;63427;49.654;6.596;2023-03-23T16:00:56;3;2;
74880;PMS5003;63427;49.654;6.596;2023-03-23T16:03:22;2;2;
74880;PMS5003;63427;49.654;6.596;2023-03-23T16:05:47;2;2;
74880;PMS5003;63427;49.654;6.596;2023-03-23T16:08:12;2;2;
74880;PMS5003;63427;49.654;6.596;2023-03-23T16:10:37;3;3;
74880;PMS5003;63427;49.654;6.596;2023-03-23T16:13:02;2;2;
74880;PMS5003;63427;49.654;6.596;2023-03-23T16:15:28;3;2;
74880;PMS5003;63427;49.654;6.596;2023-03-23T16:17:53;1;1;
74880;PMS5003;63427;49.654;6.596;2023-03-23T16:20:19;3;3;
74880;PMS5003;63427;49.654;6.596;2023-03-23T16:22:43;3;3;
74880;PMS5003;63427;49.654;6.596;2023-03-23T16:25:09;3;3;
74880;PMS5003;63427;49.654;6.596;2023-03-23T16:27:34;3;3;
74880;PMS5003;63427;49.654;6.596;2023-03-23T16:29:59;1;1;
74880;PMS5003;63427;49.654;6.596;2023-03-23T16:32:24;2;2;
74880;PMS5003;63427;49.654;6.596;2023-03-23T16:34:50;3;3;
74880;PMS5003;63427;49.654;6.596;2023-03-23T16:37:15;3;2;
74880;PMS5003;63427;49.654;6.596;2023-03-23T16:39:40;2;2;
74880;PMS5003;63427;49.654;6.596;2023-03-23T16:42:05;3;3;
74880;PMS5003;63427;49.654;6.596;2023-03-23T16:44:31;2;2;
74880;PMS5003;63427;49.654;6.596;2023-03-23T16:46:56;0;0;
74880;PMS5003;63427;49.654;6.596;2023-03-23T16:49:21;2;2;
74880;PMS5003;63427;49.654;6.596;2023-03-23T16:51:46;2;2;